Time;durP1;ratioP1;P1;durP2;ratioP2;P2;SDS_P1;SDS_P2;PMS_P1;PMS_P2;Temp;Humidity;BMP_temperature;BMP_pressure;BME280_temperature;BME280_humidity;BME280_pressure;Samples;Min_cycle;Max_cycle;Signal;HPM_P1;HPM_P2
2022/06/07 00:02:24;;;;;;;9.95;9.02;;;;;;;22.32;62.64;100306.78;5046633;28;20037;-71
2022/06/07 00:04:50;;;;;;;10.50;9.40;;;;;;;22.36;62.71;100294.88;5056916;28;20077;-71
2022/06/07 00:07:16;;;;;;;10.27;9.23;;;;;;;22.36;62.66;100297.56;5038198;28;20043;-70
2022/06/07 00:09:42;;;;;;;12.43;10.15;;;;;;;22.38;62.61;100303.66;5056487;28;20037;-70
2022/06/07 00:12:08;;;;;;;10.48;9.38;;;;;;;22.49;62.20;100299.34;5056309;28;20036;-70
2022/06/07 00:14:34;;;;;;;10.85;9.70;;;;;;;22.62;61.78;100294.78;5056382;28;20121;-70
2022/06/07 00:17:01;;;;;;;9.77;8.63;;;;;;;22.69;61.73;100290.72;5057118;28;20037;-69
2022/06/07 00:19:27;;;;;;;11.15;10.05;;;;;;;22.68;61.93;100290.84;5054856;28;20124;-69
2022/06/07 00:21:52;;;;;;;12.15;10.02;;;;;;;22.56;62.30;100295.25;5055301;28;20598;-69
2022/06/07 00:24:19;;;;;;;11.10;9.93;;;;;;;22.61;62.17;100280.56;5053582;28;20036;-69
2022/06/07 00:26:46;;;;;;;14.55;10.35;;;;;;;22.56;62.23;100292.59;5058619;28;20107;-70
2022/06/07 00:29:12;;;;;;;11.35;10.15;;;;;;;22.55;62.40;100285.53;5068832;28;20476;-69
2022/06/07 00:31:42;;;;;;;10.88;9.73;;;;;;;22.51;62.61;100276.00;5059599;28;20037;-69
2022/06/07 00:34:08;;;;;;;11.48;9.63;;;;;;;22.50;62.52;100269.81;5066141;28;20032;-69
2022/06/07 00:36:35;;;;;;;10.80;9.70;;;;;;;22.54;62.39;100270.41;5050270;28;20078;-68
2022/06/07 00:39:02;;;;;;;9.90;8.90;;;;;;;22.51;62.71;100266.16;5065078;28;20056;-68
2022/06/07 00:41:27;;;;;;;11.48;10.30;;;;;;;22.53;62.88;100268.69;5063729;28;20040;-68
2022/06/07 00:44:22;;;;;;;12.73;10.70;;;;;;;22.44;64.15;100269.38;5067375;28;20044;-68
2022/06/07 00:47:17;;;;;;;11.32;10.18;;;;;;;22.20;65.09;100267.50;5063802;28;20119;-68
2022/06/07 00:50:03;;;;;;;10.57;9.57;;;;;;;22.01;65.01;100262.56;5062177;28;20128;-68
2022/06/07 00:52:30;;;;;;;12.43;11.10;;;;;;;21.95;64.73;100262.19;5054458;28;20048;-68
2022/06/07 00:54:56;;;;;;;12.10;10.82;;;;;;;21.86;65.10;100267.22;5054320;28;20036;-68
2022/06/07 00:57:23;;;;;;;14.32;12.90;;;;;;;21.88;65.49;100275.13;5048331;28;20048;-70
2022/06/07 00:59:51;;;;;;;12.20;10.98;;;;;;;21.79;65.93;100275.78;5061928;28;20028;-70
2022/06/07 01:02:17;;;;;;;12.25;10.98;;;;;;;21.62;66.57;100260.88;5058996;28;20036;-69
2022/06/07 01:04:42;;;;;;;13.10;11.25;;;;;;;21.64;66.59;100259.81;5055388;28;20041;-69
2022/06/07 01:12:36;;;;;;;14.05;10.80;;;;;;;21.71;66.27;100252.25;5039007;28;20499;-69
2022/06/07 01:15:03;;;;;;;14.07;10.88;;;;;;;21.74;66.30;100246.66;5056379;28;20056;-69
2022/06/07 01:17:28;;;;;;;12.07;10.82;;;;;;;21.87;65.96;100246.66;5045666;28;20037;-68
2022/06/07 01:19:54;;;;;;;13.13;11.82;;;;;;;21.95;65.70;100241.63;5055642;28;20048;-68
2022/06/07 01:22:20;;;;;;;12.43;11.15;;;;;;;21.87;65.87;100227.94;5054119;28;20037;-70
2022/06/07 01:24:46;;;;;;;12.45;11.15;;;;;;;21.79;66.19;100225.81;5052568;28;20025;-69
2022/06/07 01:27:12;;;;;;;13.48;12.05;;;;;;;21.68;66.63;100223.03;5083660;28;20048;-69
2022/06/07 01:29:38;;;;;;;13.73;12.32;;;;;;;;;;5050209;28;20049;-69
2022/06/07 01:32:05;;;;;;;11.65;10.43;;;;;;;21.50;67.21;100211.78;5051412;28;20094;-69
2022/06/07 01:34:31;;;;;;;11.65;10.48;;;;;;;21.53;67.07;100214.25;5039376;28;20040;-69
2022/06/07 01:36:58;;;;;;;12.52;11.25;;;;;;;21.48;67.45;100215.56;5052128;28;20056;-68
2022/06/07 01:42:10;;;;;;;10.82;9.73;;;;;;;21.48;67.43;100221.75;5068013;28;20105;-70
2022/06/07 01:44:40;;;;;;;11.57;10.38;;;;;;;21.54;67.19;100220.47;5065260;28;20535;-69
2022/06/07 01:47:09;;;;;;;12.23;10.73;;;;;;;21.54;67.16;100220.47;5039214;28;20033;-70
2022/06/07 01:49:35;;;;;;;11.82;10.57;;;;;;;21.55;67.30;100216.84;5062549;28;20075;-69
2022/06/07 01:52:01;;;;;;;13.32;11.60;;;;;;;21.55;67.20;100208.81;5062858;28;20476;-68
2022/06/07 01:54:26;;;;;;;14.18;12.75;;;;;;;21.55;67.20;100219.53;5072841;28;20048;-69
2022/06/07 01:56:51;;;;;;;12.23;10.93;;;;;;;21.54;67.33;100212.44;5055983;28;20048;-68
2022/06/07 01:59:18;;;;;;;14.18;12.45;;;;;;;21.51;67.44;100204.66;5068778;28;20123;-68
2022/06/07 02:01:45;;;;;;;13.10;11.70;;;;;;;21.46;67.42;100206.78;5062833;28;20484;-68
2022/06/07 02:04:11;;;;;;;11.80;10.60;;;;;;;21.40;67.67;100211.59;5064951;28;20123;-68
2022/06/07 02:06:37;;;;;;;13.13;10.75;;;;;;;21.35;67.98;100219.09;5067327;28;20439;-67
2022/06/07 02:09:04;;;;;;;13.80;12.25;;;;;;;21.43;67.85;100212.38;5050796;28;20044;-69
2022/06/07 02:11:30;;;;;;;17.25;15.43;;;;;;;21.54;67.61;100205.28;5051613;28;20400;-69
2022/06/07 02:13:56;;;;;;;14.80;13.30;;;;;;;21.57;67.72;100210.41;5052834;28;20041;-69
2022/06/07 02:16:23;;;;;;;14.43;12.93;;;;;;;;;;5044214;28;20131;-69
2022/06/07 02:18:49;;;;;;;17.55;15.68;;;;;;;21.74;67.29;100211.91;5055558;28;20021;-69
2022/06/07 02:21:15;;;;;;;17.20;15.40;;;;;;;21.73;67.14;100215.53;5063071;28;20044;-69
2022/06/07 02:23:41;;;;;;;17.42;14.80;;;;;;;21.87;66.66;100222.59;5068133;28;20064;-69
2022/06/07 02:26:13;;;;;;;19.33;17.20;;;;;;;21.77;67.50;100216.19;5068777;28;20118;-69
2022/06/07 02:28:42;;;;;;;18.77;16.17;;;;;;;21.44;68.60;100224.75;5062064;28;20476;-68
2022/06/07 02:31:09;;;;;;;17.58;15.68;;;;;;;21.48;68.45;100221.75;5053453;28;20041;-68
2022/06/07 02:33:38;;;;;;;17.08;15.07;;;;;;;21.34;69.41;100222.72;5050979;28;20115;-68
2022/06/07 02:36:05;;;;;;;20.38;17.63;;;;;;;21.28;69.50;100224.91;5051615;28;20044;-67
2022/06/07 02:38:30;;;;;;;16.77;14.98;;;;;;;21.16;70.02;100218.59;5018003;28;20029;-69
2022/06/07 02:40:56;;;;;;;17.38;15.50;;;;;;;21.35;69.19;100221.75;5054492;28;20033;-69
2022/06/07 02:43:22;;;;;;;20.42;16.95;;;;;;;21.34;69.44;100220.06;5053966;28;20037;-69
2022/06/07 02:45:47;;;;;;;21.00;18.02;;;;;;;21.40;69.20;100224.09;5072960;28;20391;-69
2022/06/07 02:48:13;;;;;;;20.98;18.30;;;;;;;21.42;69.11;100227.50;5063708;28;20476;-68
2022/06/07 02:50:38;;;;;;;20.42;17.58;;;;;;;21.52;68.57;100228.59;5058037;28;20036;-68
2022/06/07 02:53:04;;;;;;;21.10;18.45;;;;;;;21.54;68.55;100225.81;5058586;28;20036;-68
2022/06/07 02:55:31;;;;;;;17.27;14.77;;;;;;;21.60;68.08;100225.41;5068343;28;20081;-68
2022/06/07 02:57:59;;;;;;;20.08;17.65;;;;;;;21.67;67.88;100228.50;5070706;28;20036;-68
2022/06/07 03:00:24;;;;;;;21.25;18.52;;;;;;;21.65;67.78;100229.44;5059455;28;20102;-68
2022/06/07 03:02:50;;;;;;;18.30;16.30;;;;;;;21.57;68.04;100229.13;5042626;28;20036;-66
2022/06/07 03:05:15;;;;;;;21.52;18.55;;;;;;;21.65;67.58;100223.25;5058181;28;20051;-68
2022/06/07 03:07:42;;;;;;;21.08;18.48;;;;;;;21.66;67.63;100214.25;5060171;28;20032;-68
2022/06/07 03:10:09;;;;;;;18.73;16.73;;;;;;;21.70;67.41;100223.78;5068834;28;20485;-68
2022/06/07 03:12:35;;;;;;;18.65;16.67;;;;;;;21.75;67.09;100224.31;5069358;28;20090;-68
2022/06/07 03:15:01;;;;;;;17.40;15.50;;;;;;;21.71;67.08;100222.84;5067737;28;20029;-68
2022/06/07 03:17:27;;;;;;;22.88;18.35;;;;;;;21.57;67.39;100228.28;5066838;28;20516;-69
2022/06/07 03:19:52;;;;;;;17.50;15.35;;;;;;;21.58;67.35;100227.31;5060002;28;20123;-68
2022/06/07 03:22:19;;;;;;;18.85;16.20;;;;;;;21.56;67.58;100221.22;5036419;28;20088;-66
2022/06/07 03:24:44;;;;;;;19.27;16.65;;;;;;;21.58;67.44;100232.66;5068246;28;20056;-69
2022/06/07 03:27:12;;;;;;;18.75;16.85;;;;;;;21.59;67.29;100237.91;5062501;28;20068;-68
2022/06/07 03:29:37;;;;;;;16.60;14.80;;;;;;;21.60;67.11;100225.41;5056617;28;20411;-68
2022/06/07 03:32:03;;;;;;;17.55;15.73;;;;;;;21.64;66.85;100233.09;5058108;28;20120;-68
2022/06/07 03:34:29;;;;;;;17.17;15.35;;;;;;;21.71;66.56;100235.34;5055419;28;20426;-69
2022/06/07 03:36:54;;;;;;;18.15;15.63;;;;;;;21.81;66.27;100233.72;5057825;28;20037;-67
2022/06/07 03:39:20;;;;;;;18.33;16.40;;;;;;;21.85;65.83;100235.22;5034012;28;20055;-68
2022/06/07 03:41:45;;;;;;;19.58;17.48;;;;;;;21.84;65.86;100228.16;5067567;28;20430;-68
2022/06/07 03:44:12;;;;;;;18.48;16.63;;;;;;;21.84;65.72;100234.34;5068421;28;20047;-68
2022/06/07 03:46:42;;;;;;;18.90;16.90;;;;;;;21.86;65.45;100235.13;5064961;28;20036;-67
2022/06/07 03:49:07;;;;;;;16.95;15.02;;;;;;;21.84;65.47;100230.84;5055970;28;20041;-67
2022/06/07 03:51:33;;;;;;;20.55;18.23;;;;;;;21.79;65.49;100236.50;5054508;28;20029;-68
2022/06/07 03:53:59;;;;;;;17.63;15.82;;;;;;;21.87;65.15;100234.16;5057704;28;20111;-68
2022/06/07 03:56:24;;;;;;;16.98;15.20;;;;;;;21.94;64.93;100239.91;5054884;28;20037;-68
2022/06/07 03:58:51;;;;;;;17.13;15.38;;;;;;;22.03;64.50;100247.28;5056086;28;20115;-67
2022/06/07 04:01:18;;;;;;;19.98;17.90;;;;;;;22.10;64.07;100243.22;5050276;28;20029;-69
2022/06/07 04:03:49;;;;;;;17.40;15.57;;;;;;;22.17;63.96;100248.13;5071355;28;20079;-68
2022/06/07 04:06:23;;;;;;;19.05;17.13;;;;;;;22.20;63.76;100251.47;5058116;28;20495;-68
2022/06/07 04:08:49;;;;;;;19.50;17.48;;;;;;;22.22;63.47;100251.34;5056702;28;20476;-67
2022/06/07 04:11:18;;;;;;;21.70;19.08;;;;;;;22.26;63.48;100248.34;5056475;28;20055;-68
2022/06/07 04:13:44;;;;;;;20.30;18.20;;;;;;;22.22;63.34;100244.19;5055112;28;20033;-68
2022/06/07 04:16:12;;;;;;;20.10;18.08;;;;;;;22.24;63.12;100242.25;5056215;28;20044;-68
2022/06/07 04:18:39;;;;;;;20.33;18.15;;;;;;;22.12;63.48;100241.28;5055172;28;20423;-68
2022/06/07 04:21:05;;;;;;;19.15;17.13;;;;;;;22.21;63.28;100234.44;5055684;28;20132;-68
2022/06/07 04:23:32;;;;;;;18.23;16.27;;;;;;;22.27;63.09;100231.31;5044325;28;20036;-69
2022/06/07 04:26:04;;;;;;;19.45;17.20;;;;;;;22.30;62.92;100244.47;5055758;28;20457;-68
2022/06/07 04:28:29;;;;;;;21.15;18.73;;;;;;;22.16;63.24;100244.63;5054815;28;20047;-69
2022/06/07 04:30:54;;;;;;;20.30;18.10;;;;;;;21.97;63.79;100244.19;5055751;28;20128;-67
2022/06/07 04:33:20;;;;;;;21.95;19.63;;;;;;;21.94;63.59;100239.03;5069834;28;20075;-70
2022/06/07 04:35:45;;;;;;;21.10;18.85;;;;;;;21.93;63.60;100238.19;5070638;28;20047;-70
2022/06/07 04:38:12;;;;;;;21.15;18.88;;;;;;;21.80;64.16;100242.72;5065501;28;20048;-68
2022/06/07 04:40:42;;;;;;;22.25;19.85;;;;;;;21.79;64.37;100244.53;5069170;28;20455;-68
2022/06/07 04:43:09;;;;;;;20.45;18.27;;;;;;;21.71;64.40;100238.88;5067929;28;20037;-67
2022/06/07 04:45:35;;;;;;;23.42;20.92;;;;;;;;;;5068845;28;20032;-67
2022/06/07 04:48:00;;;;;;;20.30;16.98;;;;;;;21.69;64.65;100250.63;5056096;28;20128;-67
2022/06/07 04:50:26;;;;;;;24.02;20.70;;;;;;;21.54;64.80;100252.53;5052799;28;20551;-68
2022/06/07 04:52:51;;;;;;;22.10;19.80;;;;;;;21.47;65.19;100256.63;5057024;28;20073;-67
2022/06/07 04:55:17;;;;;;;24.90;22.10;;;;;;;21.32;65.65;100264.72;5034699;28;20041;-68
2022/06/07 04:57:43;;;;;;;26.55;22.20;;;;;;;21.32;65.76;100256.69;5067873;28;20055;-69
2022/06/07 05:00:14;;;;;;;24.40;20.30;;;;;;;21.49;65.24;100247.50;5054783;28;20041;-69
2022/06/07 05:02:40;;;;;;;29.77;23.85;;;;;;;21.47;65.48;100254.81;5056521;28;20028;-69
2022/06/07 05:05:06;;;;;;;27.02;23.92;;;;;;;21.57;65.35;100252.34;5056479;28;20476;-69
2022/06/07 05:07:32;;;;;;;27.13;22.55;;;;;;;21.79;64.29;100241.00;5054243;28;20132;-70
2022/06/07 05:09:57;;;;;;;23.25;20.50;;;;;;;22.00;63.88;100252.84;5056151;28;20535;-69
2022/06/07 05:12:22;;;;;;;27.25;23.17;;;;;;;21.97;63.90;100246.84;5054366;28;20245;-68
2022/06/07 05:14:49;;;;;;;24.85;21.05;;;;;;;22.02;63.81;100256.28;5054946;28;20029;-68
2022/06/07 05:17:15;;;;;;;25.48;21.27;;;;;;;22.09;63.55;100246.84;5054123;28;20044;-68
2022/06/07 05:19:42;;;;;;;23.08;20.58;;;;;;;22.31;63.11;100248.88;5053814;28;20534;-68
2022/06/07 05:22:08;;;;;;;25.02;21.23;;;;;;;22.46;62.46;100246.91;5065895;28;20045;-69
2022/06/07 05:24:34;;;;;;;23.67;20.85;;;;;;;22.51;62.35;100257.28;5059996;28;20044;-68
2022/06/07 05:27:03;;;;;;;21.52;19.05;;;;;;;22.61;62.04;100260.97;5056418;28;20078;-71
2022/06/07 05:29:39;;;;;;;21.90;19.58;;;;;;;22.93;61.43;100261.28;5058616;28;20400;-70
2022/06/07 05:32:05;;;;;;;23.10;20.60;;;;;;;23.03;60.93;100261.47;5068772;28;20045;-70
2022/06/07 05:34:32;;;;;;;20.38;17.77;;;;;;;23.03;60.62;100270.34;5061035;28;20110;-69
2022/06/07 05:36:57;;;;;;;21.90;18.17;;;;;;;23.20;60.22;100258.34;5018755;28;20041;-69
2022/06/07 05:39:25;;;;;;;18.55;16.60;;;;;;;23.29;59.81;100263.00;5054707;28;20064;-69
2022/06/07 05:41:52;;;;;;;20.42;17.92;;;;;;;23.42;59.63;100267.41;5052935;28;20024;-68
2022/06/07 05:44:18;;;;;;;19.30;16.13;;;;;;;23.56;59.22;100265.38;5053882;28;20032;-69
2022/06/07 05:46:43;;;;;;;18.00;16.10;;;;;;;23.98;58.00;100271.09;5060053;28;20094;-70
2022/06/07 05:49:10;;;;;;;19.98;16.65;;;;;;;23.89;58.16;100265.56;5063624;28;20443;-69
2022/06/07 05:51:36;;;;;;;20.70;18.58;;;;;;;23.95;57.86;100275.81;5040934;28;20041;-68
2022/06/07 05:54:02;;;;;;;20.30;16.58;;;;;;;23.90;57.88;100272.63;5053100;28;20116;-69
2022/06/07 05:56:28;;;;;;;18.63;16.60;;;;;;;24.12;57.40;100277.16;5052677;28;20108;-69
2022/06/07 05:58:53;;;;;;;19.98;17.67;;;;;;;24.16;57.29;100274.13;5064857;28;20115;-68
2022/06/07 06:01:19;;;;;;;19.15;16.50;;;;;;;24.27;57.14;100268.75;5046246;28;20074;-68
2022/06/07 06:03:44;;;;;;;17.20;15.38;;;;;;;24.36;56.84;100277.88;5066750;28;20468;-69
2022/06/07 06:06:11;;;;;;;18.55;15.23;;;;;;;24.37;56.80;100281.41;5066400;28;20115;-67
2022/06/07 06:11:22;;;;;;;19.25;17.25;;;;;;;24.38;56.53;100272.38;5055094;28;20093;-70
2022/06/07 06:13:48;;;;;;;17.67;15.48;;;;;;;24.22;57.11;100279.00;5058422;28;20029;-70
2022/06/07 06:16:18;;;;;;;17.65;15.77;;;;;;;24.27;56.83;100270.56;5054232;28;20043;-68
2022/06/07 06:18:44;;;;;;;16.33;14.57;;;;;;;24.46;56.41;100280.72;5061368;28;20438;-70
2022/06/07 06:21:10;;;;;;;17.10;15.40;;;;;;;24.56;56.36;100270.91;5072755;28;20039;-69
2022/06/07 06:23:36;;;;;;;16.45;14.65;;;;;;;24.77;55.72;100279.03;5042736;28;20036;-71
2022/06/07 06:26:01;;;;;;;16.48;14.23;;;;;;;24.98;55.41;100277.28;5056864;28;20036;-70
2022/06/07 06:28:27;;;;;;;18.30;15.73;;;;;;;24.96;55.34;100284.59;5053197;28;20033;-71
2022/06/07 06:30:53;;;;;;;15.40;13.65;;;;;;;24.80;55.54;100284.16;5071157;28;20216;-71
2022/06/07 06:33:19;;;;;;;14.90;13.32;;;;;;;25.03;54.90;100279.56;5064243;28;20037;-73
2022/06/07 06:35:53;;;;;;;20.17;16.85;;;;;;;25.11;54.58;100282.50;5059174;28;20041;-72
2022/06/07 06:38:20;;;;;;;17.13;15.32;;;;;;;25.11;54.80;100282.50;5057878;28;20033;-72
2022/06/07 06:40:46;;;;;;;17.33;15.40;;;;;;;25.04;54.86;100289.34;5072855;28;20114;-72
2022/06/07 06:43:16;;;;;;;19.52;16.92;;;;;;;25.07;54.40;100283.72;5070298;28;20044;-71
2022/06/07 06:45:42;;;;;;;17.10;15.32;;;;;;;25.20;54.69;100284.41;5059860;28;20427;-71
2022/06/07 06:48:10;;;;;;;16.88;15.02;;;;;;;25.37;54.30;100282.13;5060938;28;20044;-71
2022/06/07 06:50:36;;;;;;;17.38;14.95;;;;;;;25.33;54.29;100294.13;5073019;28;20043;-72
2022/06/07 06:53:03;;;;;;;23.15;18.42;;;;;;;25.50;53.87;100288.19;5060868;28;20033;-71
2022/06/07 06:55:29;;;;;;;21.08;17.65;;;;;;;25.60;53.75;100289.09;5065027;28;20036;-72
2022/06/07 06:57:54;;;;;;;18.42;16.23;;;;;;;25.51;54.00;100279.97;5081283;28;20028;-71
2022/06/07 07:00:20;;;;;;;21.63;17.63;;;;;;;25.42;54.07;100288.84;5071213;28;20043;-72
2022/06/07 07:02:46;;;;;;;19.30;17.15;;;;;;;25.54;53.65;100289.63;5062207;28;20509;-71
2022/06/07 07:05:13;;;;;;;18.73;16.70;;;;;;;25.73;53.41;100296.94;5067406;28;20041;-71
2022/06/07 07:07:40;;;;;;;20.42;16.88;;;;;;;25.87;53.07;100301.19;5068177;28;20467;-69
2022/06/07 07:10:06;;;;;;;17.50;15.55;;;;;;;25.99;52.74;100294.72;5059116;28;20119;-70
2022/06/07 07:12:33;;;;;;;17.27;15.50;;;;;;;26.18;52.27;100294.81;5059809;28;20048;-71
2022/06/07 07:14:59;;;;;;;17.88;15.45;;;;;;;26.43;51.56;100292.63;5063303;28;20024;-71
2022/06/07 07:17:25;;;;;;;17.50;15.30;;;;;;;26.74;50.83;100280.81;5065533;28;20077;-72
2022/06/07 07:19:51;;;;;;;18.98;15.90;;;;;;;26.94;50.33;100289.78;5059882;28;20041;-73
2022/06/07 07:22:17;;;;;;;15.85;14.23;;;;;;;27.21;49.80;100286.44;5057459;28;20395;-73
2022/06/07 07:24:43;;;;;;;14.85;13.23;;;;;;;27.34;49.53;100288.81;5062740;28;20033;-73
2022/06/07 07:27:08;;;;;;;17.05;15.18;;;;;;;27.38;49.26;100290.25;5076343;28;20518;-73
2022/06/07 07:29:34;;;;;;;16.40;14.35;;;;;;;27.35;49.36;100289.66;5064815;28;20056;-73
2022/06/07 07:31:59;;;;;;;15.52;13.65;;;;;;;27.18;49.79;100289.41;5063808;28;20110;-74
2022/06/07 07:34:25;;;;;;;15.93;14.20;;;;;;;27.03;49.99;100285.38;5056073;28;20120;-73
2022/06/07 07:36:53;;;;;;;18.65;16.65;;;;;;;26.96;49.85;100281.53;5055108;28;20418;-72
2022/06/07 07:39:19;;;;;;;17.40;15.60;;;;;;;26.88;50.07;100276.84;5056455;28;20041;-74
2022/06/07 07:41:48;;;;;;;16.23;14.55;;;;;;;26.57;50.71;100286.91;5056807;28;20060;-73
2022/06/07 07:44:16;;;;;;;20.65;17.70;;;;;;;26.75;50.25;100282.53;5055959;28;20178;-73
2022/06/07 07:46:43;;;;;;;16.88;15.07;;;;;;;27.01;49.35;100293.63;5063087;28;20032;-73
2022/06/07 07:49:12;;;;;;;16.08;13.48;;;;;;;27.19;49.41;100296.47;5057089;28;20041;-73
2022/06/07 07:51:41;;;;;;;15.80;14.18;;;;;;;26.57;50.34;100296.78;5057424;28;20039;-72
2022/06/07 07:54:11;;;;;;;14.25;12.75;;;;;;;26.52;50.64;100299.91;5059835;28;20036;-73
2022/06/07 07:56:38;;;;;;;15.38;13.57;;;;;;;26.38;50.91;100305.66;5063804;28;20028;-73
2022/06/07 07:59:05;;;;;;;16.13;14.27;;;;;;;26.48;50.71;100302.03;5073698;28;20059;-73
2022/06/07 08:01:31;;;;;;;15.77;14.18;;;;;;;26.84;49.78;100294.28;5058950;28;20406;-73
2022/06/07 08:03:58;;;;;;;15.07;13.48;;;;;;;26.86;50.05;100296.88;5054958;28;20040;-72
2022/06/07 08:06:27;;;;;;;14.93;13.43;;;;;;;26.75;49.80;100304.06;5053559;28;20037;-72
2022/06/07 08:08:55;;;;;;;15.95;14.30;;;;;;;26.72;49.53;100304.34;5053674;28;20112;-71
2022/06/07 08:11:25;;;;;;;14.45;13.05;;;;;;;26.91;49.16;100292.75;5052447;28;20196;-72
2022/06/07 08:13:50;;;;;;;15.80;14.15;;;;;;;27.14;48.78;100298.75;5066078;28;20051;-72
2022/06/07 08:16:17;;;;;;;14.30;12.82;;;;;;;27.26;48.59;100292.22;5064366;28;20115;-72
2022/06/07 08:18:43;;;;;;;14.20;12.75;;;;;;;27.37;48.55;100298.44;5054422;28;20037;-73
2022/06/07 08:21:12;;;;;;;14.10;12.70;;;;;;;27.28;48.36;100305.56;5055528;28;20032;-71
2022/06/07 08:23:38;;;;;;;15.82;14.07;;;;;;;27.63;47.70;100296.88;5063490;28;20040;-73
2022/06/07 08:26:06;;;;;;;15.65;13.00;;;;;;;28.07;46.80;100297.19;5056883;28;20396;-73
2022/06/07 08:28:31;;;;;;;14.52;13.02;;;;;;;28.39;46.31;100295.97;5056486;28;20190;-69
2022/06/07 08:30:57;;;;;;;15.32;13.30;;;;;;;28.58;45.89;100298.56;5055211;28;20463;-72
2022/06/07 08:38:55;;;;;;;15.30;13.70;;;;;;;28.17;46.68;100318.78;5059549;28;20116;-72
2022/06/07 08:41:27;;;;;;;18.60;16.65;;;;;;;27.84;47.19;100306.66;5062797;28;20120;-71
2022/06/07 08:43:54;;;;;;;;;;;;;;;28.04;46.42;100307.44;5055291;28;20044;-71
2022/06/07 08:46:28;;;;;;;17.88;15.77;;;;;;;27.69;47.13;100309.78;5062541;28;19916;-69
2022/06/07 08:48:53;;;;;;;15.07;13.48;;;;;;;28.00;46.94;100306.88;5058292;28;20043;-70
2022/06/07 08:51:28;;;;;;;15.27;13.77;;;;;;;28.22;46.05;100311.94;5048718;28;20469;-72
2022/06/07 08:53:58;;;;;;;16.92;14.48;;;;;;;28.19;46.40;100320.31;5055945;28;20036;-73
2022/06/07 08:56:32;;;;;;;16.60;14.55;;;;;;;28.21;46.07;100317.50;5056000;28;20472;-72
2022/06/07 08:59:04;;;;;;;14.95;13.48;;;;;;;27.99;46.24;100314.13;5056857;28;20027;-72
2022/06/07 09:01:43;;;;;;;13.93;12.45;;;;;;;28.23;45.98;100315.47;5055505;28;20043;-72
2022/06/07 09:04:17;;;;;;;14.20;12.70;;;;;;;27.80;46.82;100318.75;5058249;28;20518;-70
2022/06/07 09:06:49;;;;;;;18.08;16.17;;;;;;;27.51;47.01;100322.31;5063956;28;20036;-72
2022/06/07 09:09:18;;;;;;;15.25;13.50;;;;;;;27.50;47.73;100323.31;5065018;28;20125;-68
2022/06/07 09:14:33;;;;;;;16.55;14.85;;;;;;;27.33;48.02;100314.09;5066046;28;20507;-71
2022/06/07 09:17:02;;;;;;;15.85;14.25;;;;;;;27.42;47.66;100307.00;5061846;28;20444;-71
2022/06/07 09:19:31;;;;;;;14.80;13.30;;;;;;;27.39;47.77;100308.13;5067794;28;20036;-71
2022/06/07 09:21:59;;;;;;;14.65;13.05;;;;;;;27.31;48.11;100307.13;5058186;28;20040;-71
2022/06/07 09:24:39;;;;;;;14.27;12.88;;;;;;;27.06;47.81;100303.97;5053963;28;20036;-72
2022/06/07 09:27:05;;;;;;;14.18;12.68;;;;;;;27.11;48.09;100315.22;5066484;28;20036;-71
2022/06/07 09:29:36;;;;;;;14.07;12.55;;;;;;;27.11;48.09;100309.81;5067508;28;20151;-71
2022/06/07 09:32:08;;;;;;;14.68;13.05;;;;;;;27.09;48.21;100317.19;5058053;28;20471;-71
2022/06/07 09:34:34;;;;;;;17.65;13.98;;;;;;;27.13;48.34;100306.97;5055881;28;20044;-71
2022/06/07 09:37:07;;;;;;;13.70;12.32;;;;;;;27.09;48.58;100311.78;5052176;28;20037;-70
2022/06/07 09:39:36;;;;;;;14.57;13.07;;;;;;;26.95;48.37;100306.81;5060690;28;20730;-69
2022/06/07 09:42:29;;;;;;;17.75;15.20;;;;;;;26.89;48.49;100307.34;5055998;28;20692;-70
2022/06/07 09:44:55;;;;;;;14.98;13.38;;;;;;;26.72;48.63;100309.75;5063012;28;20388;-70
2022/06/07 09:47:22;;;;;;;13.98;12.57;;;;;;;26.94;48.35;100311.34;5061193;28;20035;-70
2022/06/07 09:49:55;;;;;;;13.35;11.98;;;;;;;27.11;48.03;100290.94;5068012;28;20029;-71
2022/06/07 09:52:27;;;;;;;16.58;12.80;;;;;;;27.33;47.68;100299.72;5066028;28;20037;-69
2022/06/07 09:55:18;;;;;;;15.13;13.53;;;;;;;27.37;47.28;100303.84;5057609;28;20066;-70
2022/06/07 09:58:15;;;;;;;14.43;12.98;;;;;;;27.20;47.88;100306.28;5058055;28;20033;-71
2022/06/07 10:00:49;;;;;;;13.55;11.38;;;;;;;27.50;47.52;100291.78;5070865;28;20029;-71
2022/06/07 10:03:28;;;;;;;14.73;13.23;;;;;;;27.44;47.57;100300.44;5065639;28;20395;-69
2022/06/07 10:06:21;;;;;;;13.80;11.90;;;;;;;27.64;47.47;100295.88;5068616;28;20037;-69
2022/06/07 10:09:12;;;;;;;14.98;13.25;;;;;;;27.69;46.81;100292.75;5067370;28;20533;-69
2022/06/07 10:12:11;;;;;;;14.27;12.48;;;;;;;27.42;46.83;100297.03;5067323;28;20040;-71
2022/06/07 10:14:59;;;;;;;14.50;12.98;;;;;;;27.19;47.57;100293.78;5070971;28;20028;-70
2022/06/07 10:17:58;;;;;;;16.10;13.30;;;;;;;27.05;48.01;100293.31;5064938;28;20024;-70
2022/06/07 10:21:05;;;;;;;12.63;11.27;;;;;;;27.29;47.47;100299.19;5070736;28;20040;-70
2022/06/07 10:24:04;;;;;;;14.25;11.85;;;;;;;27.61;46.93;100284.50;5063415;28;20029;-70
2022/06/07 10:26:39;;;;;;;16.00;12.68;;;;;;;27.63;46.79;100288.78;5067806;28;20419;-70
2022/06/07 10:29:19;;;;;;;13.27;10.68;;;;;;;28.18;45.83;100298.88;5072798;28;20139;-69
2022/06/07 10:31:55;;;;;;;14.32;12.63;;;;;;;28.36;45.28;100296.22;5061639;28;20029;-70
2022/06/07 10:34:33;;;;;;;13.70;12.25;;;;;;;28.53;45.10;100297.28;5060936;28;20056;-70
2022/06/07 10:37:14;;;;;;;11.63;10.45;;;;;;;28.80;44.44;100304.53;5067790;28;20028;-70
2022/06/07 10:54:10;;;;;;;10.82;9.73;;;;;;;28.60;43.54;100303.78;5069218;28;20460;-68
2022/06/07 10:56:42;;;;;;;10.07;9.07;;;;;;;28.40;42.45;100294.94;5055576;28;20480;-69
2022/06/07 10:59:17;;;;;;;13.52;9.57;;;;;;;28.44;42.35;100293.66;5062943;28;20036;-71
2022/06/07 11:01:49;;;;;;;9.88;8.88;;;;;;;28.78;42.79;100295.72;5065785;28;20033;-69
2022/06/07 11:10:17;;;;;;;10.18;9.02;;;;;;;29.49;41.04;100279.50;5070607;28;20032;-70
2022/06/07 11:13:01;;;;;;;10.95;8.57;;;;;;;29.50;40.63;100277.66;5070288;28;20040;-69
2022/06/07 11:15:40;;;;;;;8.70;7.88;;;;;;;29.86;40.28;100281.97;5070254;28;20035;-68
2022/06/07 11:18:25;;;;;;;8.45;7.65;;;;;;;30.47;38.61;100274.66;5070136;28;20052;-71
2022/06/07 11:21:11;;;;;;;8.80;8.00;;;;;;;30.71;38.26;100271.16;5069357;28;20037;-71
2022/06/07 11:23:42;;;;;;;8.98;8.07;;;;;;;31.04;37.41;100277.56;5069880;28;20036;-69
2022/06/07 11:26:15;;;;;;;9.68;8.50;;;;;;;31.00;37.87;100269.88;5069689;28;20487;-71
2022/06/07 11:28:40;;;;;;;8.23;7.43;;;;;;;30.78;38.63;100274.13;5069853;28;20467;-71
2022/06/07 11:31:21;;;;;;;8.25;7.40;;;;;;;30.88;37.84;100263.94;5058089;28;20033;-70
2022/06/07 11:33:53;;;;;;;8.20;7.40;;;;;;;31.07;37.53;100262.78;5052633;28;20475;-69
2022/06/07 11:36:24;;;;;;;7.25;6.55;;;;;;;31.29;37.57;100264.00;5069557;28;20506;-70
2022/06/07 11:38:58;;;;;;;7.63;6.32;;;;;;;31.43;36.57;100263.31;5050568;28;20561;-70
2022/06/07 11:41:39;;;;;;;8.27;7.47;;;;;;;31.63;36.64;100256.50;5049476;28;20033;-70
2022/06/07 11:44:10;;;;;;;7.65;6.88;;;;;;;31.78;35.88;100247.66;5049162;28;20507;-71
2022/06/07 11:46:35;;;;;;;8.05;7.25;;;;;;;31.59;36.67;100254.31;5049426;28;20033;-70
2022/06/07 11:49:25;;;;;;;7.90;7.10;;;;;;;31.75;34.79;100248.00;5049433;28;20041;-70
2022/06/07 11:51:52;;;;;;;8.43;7.03;;;;;;;31.75;35.57;100234.41;5020637;28;20408;-70
2022/06/07 11:54:23;;;;;;;8.73;7.68;;;;;;;31.64;35.76;100241.91;5032955;28;20034;-70
2022/06/07 11:56:51;;;;;;;8.93;6.97;;;;;;;31.54;35.76;100230.38;5031915;28;20079;-71
2022/06/07 11:59:19;;;;;;;7.07;6.38;;;;;;;31.30;36.12;100233.13;5032020;28;20033;-69
2022/06/07 12:02:06;;;;;;;9.13;7.28;;;;;;;31.04;35.25;100242.28;5030462;28;20460;-69